createdAt,value
2022-10-28T00:00:15.854Z,1012.7
2022-10-28T00:01:19.113Z,1012.7
2022-10-28T00:02:22.607Z,1012.7
2022-10-28T00:03:25.758Z,1012.7
2022-10-28T00:05:30.551Z,1012.7
2022-10-28T00:06:33.824Z,1012.8
2022-10-28T00:07:37.297Z,1012.7
2022-10-28T00:08:41.044Z,1012.7
2022-10-28T00:09:43.380Z,1012.7
2022-10-28T00:10:46.096Z,1012.6
2022-10-28T00:11:49.793Z,1012.7
2022-10-28T00:12:52.688Z,1012.7
2022-10-28T00:13:56.010Z,1012.7
2022-10-28T00:14:59.222Z,1012.7
2022-10-28T00:16:02.283Z,1012.7
2022-10-28T00:17:06.040Z,1012.7
2022-10-28T00:18:08.807Z,1012.7
2022-10-28T00:19:11.402Z,1012.7
2022-10-28T00:20:13.406Z,1012.7
2022-10-28T00:21:16.878Z,1012.7
2022-10-28T00:22:19.886Z,1012.7
2022-10-28T00:23:23.083Z,1012.7
2022-10-28T00:24:26.876Z,1012.7
2022-10-28T00:25:28.839Z,1012.6
2022-10-28T00:26:31.392Z,1012.6
2022-10-28T00:27:34.181Z,1012.7
2022-10-28T00:28:37.339Z,1012.7
2022-10-28T00:29:39.774Z,1012.7
2022-10-28T00:30:42.943Z,1012.6
2022-10-28T00:31:45.953Z,1012.6
2022-10-28T00:32:48.769Z,1012.6
2022-10-28T00:33:52.486Z,1012.6
2022-10-28T00:34:56.476Z,1012.6
2022-10-28T00:36:00.658Z,1012.6
2022-10-28T00:37:07.377Z,1012.6
2022-10-28T00:38:10.446Z,1012.6
2022-10-28T00:39:13.578Z,1012.6
2022-10-28T00:40:17.454Z,1012.6
2022-10-28T00:41:20.876Z,1012.6
2022-10-28T00:42:23.498Z,1012.7
2022-10-28T00:44:28.968Z,1012.7
2022-10-28T00:45:32.313Z,1012.6
2022-10-28T00:46:35.121Z,1012.6
2022-10-28T00:47:38.105Z,1012.6
2022-10-28T00:48:40.627Z,1012.6
2022-10-28T00:49:42.781Z,1012.6
2022-10-28T00:50:46.505Z,1012.6
2022-10-28T00:51:49.596Z,1012.6
2022-10-28T00:52:52.962Z,1012.6
2022-10-28T00:53:56.292Z,1012.6
2022-10-28T00:55:00.036Z,1012.5
2022-10-28T00:56:03.789Z,1012.5
2022-10-28T00:57:06.431Z,1012.5
2022-10-28T00:58:09.876Z,1012.6
2022-10-28T00:59:12.753Z,1012.5
2022-10-28T01:00:16.093Z,1012.5
2022-10-28T01:01:19.075Z,1012.5
2022-10-28T01:02:22.177Z,1012.5
2022-10-28T01:03:25.320Z,1012.5
2022-10-28T01:04:27.856Z,1012.5
2022-10-28T01:05:30.564Z,1012.5
2022-10-28T01:06:34.566Z,1012.5
2022-10-28T01:07:37.758Z,1012.6
2022-10-28T01:08:40.620Z,1012.6
2022-10-28T01:09:43.974Z,1012.5
2022-10-28T01:10:48.118Z,1012.5
2022-10-28T01:11:52.257Z,1012.6
2022-10-28T01:12:56.427Z,1012.6
2022-10-28T01:13:59.331Z,1012.6
2022-10-28T01:15:02.214Z,1012.5
2022-10-28T01:16:04.721Z,1012.5
2022-10-28T01:17:07.864Z,1012.5
2022-10-28T01:18:11.139Z,1012.6
2022-10-28T01:19:13.927Z,1012.5
2022-10-28T01:20:15.894Z,1012.5
2022-10-28T01:21:18.680Z,1012.5
2022-10-28T01:22:22.284Z,1012.5
2022-10-28T01:23:25.374Z,1012.5
2022-10-28T01:24:27.977Z,1012.5
2022-10-28T01:25:31.306Z,1012.6
2022-10-28T01:26:34.179Z,1012.5
2022-10-28T01:27:38.298Z,1012.5
2022-10-28T01:28:41.443Z,1012.5
2022-10-28T01:29:44.155Z,1012.5
2022-10-28T01:30:47.114Z,1012.4
2022-10-28T01:31:49.909Z,1012.4
2022-10-28T01:32:53.712Z,1012.4
2022-10-28T01:33:58.382Z,1012.4
2022-10-28T01:35:00.628Z,1012.4
2022-10-28T01:36:02.854Z,1012.4
2022-10-28T01:37:05.930Z,1012.4
2022-10-28T01:38:09.123Z,1012.4
2022-10-28T01:39:12.848Z,1012.4
2022-10-28T01:40:16.251Z,1012.4
2022-10-28T01:41:19.623Z,1012.4
2022-10-28T01:42:22.891Z,1012.4
2022-10-28T01:43:26.146Z,1012.4
2022-10-28T01:44:28.866Z,1012.5
2022-10-28T01:45:32.041Z,1012.5
2022-10-28T01:46:35.111Z,1012.5
2022-10-28T01:47:38.452Z,1012.5
2022-10-28T01:48:41.529Z,1012.5
2022-10-28T01:49:44.575Z,1012.5
2022-10-28T01:50:48.023Z,1012.5
2022-10-28T01:51:51.368Z,1012.5
2022-10-28T01:52:55.182Z,1012.5
2022-10-28T01:53:59.109Z,1012.5
2022-10-28T01:55:02.556Z,1012.5
2022-10-28T01:56:05.019Z,1012.5
2022-10-28T01:57:08.428Z,1012.5
2022-10-28T01:58:11.783Z,1012.5
2022-10-28T01:59:15.521Z,1012.5
2022-10-28T02:00:18.296Z,1012.5
2022-10-28T02:01:21.614Z,1012.5
2022-10-28T02:02:25.050Z,1012.4
2022-10-28T02:03:28.121Z,1012.4
2022-10-28T02:04:31.112Z,1012.3
2022-10-28T02:05:34.621Z,1012.4
2022-10-28T02:06:38.057Z,1012.4
2022-10-28T02:07:41.121Z,1012.4
2022-10-28T02:08:44.210Z,1012.5
2022-10-28T02:09:47.265Z,1012.5
2022-10-28T02:10:50.164Z,1012.6
2022-10-28T02:11:52.348Z,1012.6
2022-10-28T02:12:55.794Z,1012.6
2022-10-28T02:13:58.682Z,1012.6
2022-10-28T02:15:02.931Z,1012.6
2022-10-28T02:16:06.617Z,1012.6
2022-10-28T02:17:09.503Z,1012.6
2022-10-28T02:18:12.857Z,1012.6
2022-10-28T02:19:15.015Z,1012.6
2022-10-28T02:20:18.082Z,1012.5
2022-10-28T02:21:21.741Z,1012.5
2022-10-28T02:22:24.983Z,1012.5
2022-10-28T02:23:27.979Z,1012.4
2022-10-28T02:24:30.140Z,1012.4
2022-10-28T02:25:33.263Z,1012.4
2022-10-28T02:26:36.624Z,1012.5
2022-10-28T02:27:39.438Z,1012.5
2022-10-28T02:28:41.941Z,1012.5
2022-10-28T02:29:44.864Z,1012.5
2022-10-28T02:30:48.673Z,1012.6
2022-10-28T02:31:51.266Z,1012.5
2022-10-28T02:32:55.276Z,1012.5
2022-10-28T02:33:59.701Z,1012.5
2022-10-28T02:35:03.122Z,1012.5
2022-10-28T02:36:06.197Z,1012.5
2022-10-28T02:37:09.345Z,1012.5
2022-10-28T02:38:13.082Z,1012.5
2022-10-28T02:39:15.671Z,1012.6
2022-10-28T02:40:18.100Z,1012.6
2022-10-28T02:41:20.906Z,1012.5
2022-10-28T02:42:24.483Z,1012.5
2022-10-28T02:43:27.512Z,1012.5
2022-10-28T02:44:30.605Z,1012.5
2022-10-28T02:45:34.294Z,1012.5
2022-10-28T02:46:37.991Z,1012.5
2022-10-28T02:47:40.863Z,1012.5
2022-10-28T02:48:44.241Z,1012.5
2022-10-28T02:49:46.957Z,1012.5
2022-10-28T02:50:49.678Z,1012.5
2022-10-28T02:51:52.819Z,1012.4
2022-10-28T02:52:56.009Z,1012.4
2022-10-28T02:53:59.041Z,1012.4
2022-10-28T02:55:02.393Z,1012.4
2022-10-28T02:56:05.671Z,1012.5
2022-10-28T02:57:08.271Z,1012.5
2022-10-28T02:58:11.085Z,1012.6
2022-10-28T02:59:14.353Z,1012.6
2022-10-28T03:00:16.773Z,1012.5
2022-10-28T03:01:20.638Z,1012.6
2022-10-28T03:02:25.512Z,1012.5
2022-10-28T03:03:28.026Z,1012.5
2022-10-28T03:04:31.000Z,1012.5
2022-10-28T03:05:34.136Z,1012.4
2022-10-28T03:06:37.042Z,1012.4
2022-10-28T03:07:40.383Z,1012.4
2022-10-28T03:08:42.892Z,1012.4
2022-10-28T03:09:45.600Z,1012.4
2022-10-28T03:10:48.593Z,1012.4
2022-10-28T03:11:51.761Z,1012.5
2022-10-28T03:12:54.958Z,1012.5
2022-10-28T03:13:58.041Z,1012.4
2022-10-28T03:15:00.493Z,1012.4
2022-10-28T03:16:03.559Z,1012.3
2022-10-28T03:17:06.347Z,1012.3
2022-10-28T03:18:10.440Z,1012.3
2022-10-28T03:19:13.542Z,1012.3
2022-10-28T03:20:16.469Z,1012.3
2022-10-28T03:21:19.530Z,1012.3
2022-10-28T03:22:22.604Z,1012.2
2022-10-28T03:23:25.129Z,1012.2
2022-10-28T03:24:28.547Z,1012.3
2022-10-28T03:25:31.426Z,1012.2
2022-10-28T03:26:34.495Z,1012.2
2022-10-28T03:27:37.313Z,1012.1
2022-10-28T03:28:39.754Z,1012.2
2022-10-28T03:29:46.513Z,1012.2
2022-10-28T03:30:49.560Z,1012.2
2022-10-28T03:31:52.620Z,1012.2
2022-10-28T03:32:56.769Z,1012.2
2022-10-28T03:34:00.229Z,1012.2
2022-10-28T03:35:03.022Z,1012.2
2022-10-28T03:36:06.486Z,1012.2
2022-10-28T03:37:09.443Z,1012.2
2022-10-28T03:38:12.514Z,1012.2
2022-10-28T03:39:15.107Z,1012.2
2022-10-28T03:40:18.451Z,1012.2
2022-10-28T03:41:21.611Z,1012.2
2022-10-28T03:42:25.059Z,1012.2
2022-10-28T03:43:28.197Z,1012.1
2022-10-28T03:44:31.642Z,1012.1
2022-10-28T03:45:35.402Z,1012.1
2022-10-28T03:46:38.381Z,1012.1
2022-10-28T03:47:41.455Z,1012.1
2022-10-28T03:48:45.617Z,1012
2022-10-28T03:49:49.464Z,1012
2022-10-28T03:50:52.621Z,1012
2022-10-28T03:51:55.505Z,1012
2022-10-28T03:52:58.956Z,1012
2022-10-28T03:54:01.836Z,1012
2022-10-28T03:55:04.538Z,1012
2022-10-28T03:56:07.614Z,1012
2022-10-28T03:57:10.595Z,1011.9
2022-10-28T03:58:13.648Z,1011.9
2022-10-28T03:59:20.615Z,1011.9
2022-10-28T04:00:23.436Z,1011.8
2022-10-28T04:01:27.577Z,1011.8
2022-10-28T04:02:31.259Z,1011.9
2022-10-28T04:03:34.853Z,1011.9
2022-10-28T04:04:37.775Z,1011.9
2022-10-28T04:05:41.265Z,1011.9
2022-10-28T04:06:44.095Z,1011.9
2022-10-28T04:07:47.446Z,1011.9
2022-10-28T04:08:50.788Z,1011.9
2022-10-28T04:09:53.850Z,1011.8
2022-10-28T04:10:57.211Z,1011.8
2022-10-28T04:12:01.100Z,1011.8
2022-10-28T04:13:04.795Z,1011.8
2022-10-28T04:14:08.048Z,1011.8
2022-10-28T04:15:10.863Z,1011.8
2022-10-28T04:16:13.736Z,1011.8
2022-10-28T04:17:17.502Z,1011.8
2022-10-28T04:18:19.764Z,1011.8
2022-10-28T04:19:23.128Z,1011.8
2022-10-28T04:20:26.552Z,1011.9
2022-10-28T04:21:30.012Z,1011.9
2022-10-28T04:22:33.076Z,1011.8
2022-10-28T04:23:35.890Z,1011.8
2022-10-28T04:24:38.607Z,1011.8
2022-10-28T04:25:41.580Z,1011.8
2022-10-28T04:26:44.793Z,1011.8
2022-10-28T04:27:47.680Z,1011.8
2022-10-28T04:28:50.556Z,1011.8
2022-10-28T04:29:53.909Z,1011.8
2022-10-28T04:30:56.623Z,1011.8
2022-10-28T04:32:00.047Z,1011.8
2022-10-28T04:33:03.434Z,1011.8
2022-10-28T04:34:05.500Z,1011.8
2022-10-28T04:35:08.930Z,1011.8
2022-10-28T04:36:12.034Z,1011.8
2022-10-28T04:37:20.998Z,1011.8
2022-10-28T04:39:26.396Z,1011.8
2022-10-28T04:40:29.475Z,1011.8
2022-10-28T04:41:32.187Z,1011.8
2022-10-28T04:42:35.534Z,1011.8
2022-10-28T04:43:38.324Z,1011.8
2022-10-28T04:44:41.323Z,1011.8
2022-10-28T04:45:44.541Z,1011.8
2022-10-28T04:46:47.886Z,1011.9
2022-10-28T04:47:51.049Z,1011.9
2022-10-28T04:48:53.224Z,1011.9
2022-10-28T04:49:56.318Z,1011.8
2022-10-28T04:50:59.255Z,1011.7
2022-10-28T04:52:02.642Z,1011.7
2022-10-28T04:53:06.852Z,1011.7
2022-10-28T04:54:10.318Z,1011.7
2022-10-28T04:55:13.306Z,1011.7
2022-10-28T04:56:15.273Z,1011.7
2022-10-28T04:57:18.053Z,1011.7
2022-10-28T04:58:21.356Z,1011.7
2022-10-28T04:59:23.884Z,1011.7
2022-10-28T05:00:26.754Z,1011.8
2022-10-28T05:01:29.572Z,1011.8
2022-10-28T05:02:32.575Z,1011.8
2022-10-28T05:03:35.156Z,1011.8
2022-10-28T05:04:38.615Z,1011.8
2022-10-28T05:05:41.866Z,1011.8
2022-10-28T05:06:44.658Z,1011.8
2022-10-28T05:07:48.131Z,1011.8
2022-10-28T05:08:51.874Z,1011.8
2022-10-28T05:09:54.676Z,1011.7
2022-10-28T05:10:58.135Z,1011.7
2022-10-28T05:12:01.855Z,1011.7
2022-10-28T05:13:04.291Z,1011.7
2022-10-28T05:14:07.372Z,1011.7
2022-10-28T05:15:10.265Z,1011.6
2022-10-28T05:16:12.854Z,1011.6
2022-10-28T05:17:15.849Z,1011.6
2022-10-28T05:18:18.740Z,1011.6
2022-10-28T05:19:21.948Z,1011.6
2022-10-28T05:20:25.029Z,1011.6
2022-10-28T05:21:28.778Z,1011.6
2022-10-28T05:22:32.182Z,1011.6
2022-10-28T05:23:35.615Z,1011.5
2022-10-28T05:24:39.095Z,1011.6
2022-10-28T05:25:41.866Z,1011.5
2022-10-28T05:26:44.659Z,1011.5
2022-10-28T05:27:47.811Z,1011.5
2022-10-28T05:28:50.255Z,1011.4
2022-10-28T05:29:53.387Z,1011.5
2022-10-28T05:30:56.450Z,1011.4
2022-10-28T05:31:59.451Z,1011.4
2022-10-28T05:33:02.969Z,1011.4
2022-10-28T05:34:06.432Z,1011.5
2022-10-28T05:35:08.668Z,1011.5
2022-10-28T05:36:11.823Z,1011.4
2022-10-28T05:37:14.840Z,1011.4
2022-10-28T05:38:18.556Z,1011.4
2022-10-28T05:39:21.779Z,1011.4
2022-10-28T05:40:25.617Z,1011.4
2022-10-28T05:41:28.680Z,1011.4
2022-10-28T05:42:31.541Z,1011.4
2022-10-28T05:43:33.984Z,1011.4
2022-10-28T05:44:36.225Z,1011.4
2022-10-28T05:45:39.350Z,1011.4
2022-10-28T05:46:42.064Z,1011.4
2022-10-28T05:47:45.211Z,1011.4
2022-10-28T05:48:48.354Z,1011.3
2022-10-28T05:49:50.882Z,1011.3
2022-10-28T05:50:53.598Z,1011.3
2022-10-28T05:51:56.869Z,1011.3
2022-10-28T05:53:00.578Z,1011.4
2022-10-28T05:54:03.290Z,1011.4
2022-10-28T05:55:06.910Z,1011.4
2022-10-28T05:56:10.779Z,1011.4
2022-10-28T05:57:13.297Z,1011.4
2022-10-28T05:58:16.565Z,1011.3
2022-10-28T05:59:19.091Z,1011.4
2022-10-28T06:00:21.595Z,1011.4
2022-10-28T06:01:24.544Z,1011.3
2022-10-28T06:02:27.427Z,1011.4
2022-10-28T06:03:32.035Z,1011.5
2022-10-28T06:04:35.657Z,1011.5
2022-10-28T06:05:39.301Z,1011.5
2022-10-28T06:06:42.376Z,1011.5
2022-10-28T06:07:45.529Z,1011.6
2022-10-28T06:08:48.995Z,1011.6
2022-10-28T06:09:52.151Z,1011.6
2022-10-28T06:10:54.117Z,1011.6
2022-10-28T06:11:57.869Z,1011.6
2022-10-28T06:13:00.859Z,1011.7
2022-10-28T06:14:03.682Z,1011.6
2022-10-28T06:15:06.750Z,1011.6
2022-10-28T06:16:09.813Z,1011.6
2022-10-28T06:17:13.062Z,1011.6
2022-10-28T06:18:19.135Z,1011.6
2022-10-28T06:19:22.866Z,1011.5
2022-10-28T06:20:25.817Z,1011.6
2022-10-28T06:21:28.682Z,1011.6
2022-10-28T06:22:32.022Z,1011.6
2022-10-28T06:23:35.770Z,1011.6
2022-10-28T06:24:38.594Z,1011.6
2022-10-28T06:25:42.330Z,1011.5
2022-10-28T06:26:45.624Z,1011.6
2022-10-28T06:27:49.962Z,1011.5
2022-10-28T06:28:55.194Z,1011.5
2022-10-28T06:29:58.738Z,1011.5
2022-10-28T06:31:02.154Z,1011.5
2022-10-28T06:32:04.388Z,1011.5
2022-10-28T06:33:06.910Z,1011.5
2022-10-28T06:34:09.774Z,1011.5
2022-10-28T06:35:12.488Z,1011.5
2022-10-28T06:36:15.283Z,1011.5
2022-10-28T06:37:18.540Z,1011.5
2022-10-28T06:38:22.540Z,1011.4
2022-10-28T06:40:29.051Z,1011.4
2022-10-28T06:41:32.036Z,1011.5
2022-10-28T06:42:35.734Z,1011.4
2022-10-28T06:43:39.498Z,1011.4
2022-10-28T06:44:42.734Z,1011.4
2022-10-28T06:45:46.465Z,1011.4
2022-10-28T06:46:51.044Z,1011.4
2022-10-28T06:47:54.663Z,1011.4
2022-10-28T06:48:57.174Z,1011.4
2022-10-28T06:49:59.967Z,1011.3
2022-10-28T06:51:03.612Z,1011.4
2022-10-28T06:52:06.408Z,1011.3
2022-10-28T06:53:09.861Z,1011.4
2022-10-28T06:54:12.652Z,1011.4
2022-10-28T06:55:15.285Z,1011.4
2022-10-28T06:56:19.304Z,1011.4
2022-10-28T06:57:29.131Z,1011.4
2022-10-28T06:58:32.883Z,1011.4
2022-10-28T06:59:36.083Z,1011.4
2022-10-28T07:00:38.810Z,1011.5
2022-10-28T07:01:42.151Z,1011.5
2022-10-28T07:02:46.035Z,1011.5
2022-10-28T07:03:49.503Z,1011.5
2022-10-28T07:04:52.598Z,1011.5
2022-10-28T07:05:55.318Z,1011.5
2022-10-28T07:06:58.364Z,1011.5
2022-10-28T07:08:01.207Z,1011.5
2022-10-28T07:09:04.020Z,1011.6
2022-10-28T07:10:07.092Z,1011.6
2022-10-28T07:11:10.458Z,1011.5
2022-10-28T07:12:12.822Z,1011.6
2022-10-28T07:13:16.434Z,1011.6
2022-10-28T07:14:19.655Z,1011.6
2022-10-28T07:15:23.132Z,1011.6
2022-10-28T07:16:26.217Z,1011.6
2022-10-28T07:17:29.674Z,1011.6
2022-10-28T07:18:33.047Z,1011.6
2022-10-28T07:19:36.189Z,1011.6
2022-10-28T07:20:39.546Z,1011.6
2022-10-28T07:21:42.073Z,1011.6
2022-10-28T07:22:45.470Z,1011.5
2022-10-28T07:23:48.458Z,1011.5
2022-10-28T07:24:51.647Z,1011.5
2022-10-28T07:26:58.462Z,1011.5
2022-10-28T07:28:01.940Z,1011.5
2022-10-28T07:29:05.277Z,1011.5
2022-10-28T07:30:08.122Z,1011.5
2022-10-28T07:32:14.255Z,1011.4
2022-10-28T07:33:17.131Z,1011.4
2022-10-28T07:34:25.938Z,1011.4
2022-10-28T07:35:30.553Z,1011.4
2022-10-28T07:36:33.425Z,1011.4
2022-10-28T07:37:35.865Z,1011.4
2022-10-28T07:38:38.671Z,1011.4
2022-10-28T07:39:41.284Z,1011.4
2022-10-28T07:40:44.645Z,1011.4
2022-10-28T07:41:47.081Z,1011.4
2022-10-28T07:42:50.163Z,1011.4
2022-10-28T07:43:54.559Z,1011.4
2022-10-28T07:44:57.906Z,1011.3
2022-10-28T07:46:01.248Z,1011.3
2022-10-28T07:47:05.044Z,1011.3
2022-10-28T07:48:07.841Z,1011.3
2022-10-28T07:49:09.993Z,1011.4
2022-10-28T07:50:13.271Z,1011.4
2022-10-28T07:51:16.642Z,1011.4
2022-10-28T07:52:19.704Z,1011.3
2022-10-28T07:53:28.760Z,1011.3
2022-10-28T07:54:32.029Z,1011.3
2022-10-28T07:55:35.107Z,1011.3
2022-10-28T07:56:38.533Z,1011.4
2022-10-28T07:57:41.951Z,1011.3
2022-10-28T07:58:45.113Z,1011.4
2022-10-28T07:59:47.725Z,1011.4
2022-10-28T08:00:51.481Z,1011.4
2022-10-28T08:01:55.045Z,1011.4
2022-10-28T08:02:59.460Z,1011.4
2022-10-28T08:04:02.175Z,1011.4
2022-10-28T08:05:04.791Z,1011.4
2022-10-28T08:06:07.953Z,1011.4
2022-10-28T08:07:11.007Z,1011.3
2022-10-28T08:08:13.429Z,1011.3
2022-10-28T08:09:16.238Z,1011.3
2022-10-28T08:10:18.953Z,1011.3
2022-10-28T08:11:21.838Z,1011.3
2022-10-28T08:12:24.553Z,1011.3
2022-10-28T08:13:27.082Z,1011.3
2022-10-28T08:14:29.894Z,1011.2
2022-10-28T08:15:33.033Z,1011.2
2022-10-28T08:16:36.407Z,1011.2
2022-10-28T08:17:39.544Z,1011.2
2022-10-28T08:18:42.839Z,1011.1
2022-10-28T08:19:46.190Z,1011.2
2022-10-28T08:20:49.528Z,1011.1
2022-10-28T08:21:53.487Z,1011.2
2022-10-28T08:22:57.696Z,1011.2
2022-10-28T08:24:09.229Z,1011.2
2022-10-28T08:25:12.314Z,1011.2
2022-10-28T08:26:15.774Z,1011.2
2022-10-28T08:27:18.294Z,1011.1
2022-10-28T08:28:21.460Z,1011.2
2022-10-28T08:29:30.343Z,1011.2
2022-10-28T08:30:56.984Z,1011.2
2022-10-28T08:32:12.697Z,1011.1
2022-10-28T08:33:16.162Z,1011.2
2022-10-28T08:35:22.312Z,1011.1
2022-10-28T08:36:25.191Z,1011.1
2022-10-28T08:37:28.571Z,1011.1
2022-10-28T08:38:32.431Z,1011.1
2022-10-28T08:39:35.182Z,1011.1
2022-10-28T08:40:38.570Z,1011
2022-10-28T08:41:41.755Z,1011
2022-10-28T08:42:44.852Z,1011
2022-10-28T08:43:58.247Z,1011
2022-10-28T08:45:02.298Z,1011
2022-10-28T08:46:05.933Z,1011
2022-10-28T08:47:09.010Z,1010.9
2022-10-28T08:48:12.000Z,1011
2022-10-28T08:49:14.768Z,1010.9
2022-10-28T08:50:17.994Z,1010.9
2022-10-28T08:51:21.372Z,1010.9
2022-10-28T08:52:24.916Z,1010.9
2022-10-28T08:53:28.267Z,1010.9
2022-10-28T08:54:30.976Z,1010.9
2022-10-28T08:55:33.963Z,1011
2022-10-28T08:56:36.952Z,1011
2022-10-28T08:57:40.678Z,1011
2022-10-28T08:58:43.749Z,1011
2022-10-28T08:59:46.292Z,1011
2022-10-28T09:00:49.237Z,1011
2022-10-28T09:01:52.969Z,1011
2022-10-28T09:02:58.007Z,1011
2022-10-28T09:04:01.315Z,1011
2022-10-28T09:05:04.648Z,1011
2022-10-28T09:06:08.405Z,1011
2022-10-28T09:07:11.741Z,1011
2022-10-28T09:08:14.720Z,1011
2022-10-28T09:09:17.708Z,1011
2022-10-28T09:10:21.096Z,1010.9
2022-10-28T09:11:27.640Z,1010.9
2022-10-28T09:12:31.026Z,1010.9
2022-10-28T09:13:34.096Z,1010.9
2022-10-28T09:14:37.550Z,1010.9
2022-10-28T09:16:42.787Z,1010.8
2022-10-28T09:17:46.489Z,1010.9
2022-10-28T09:18:49.836Z,1010.9
2022-10-28T09:19:53.190Z,1010.9
2022-10-28T09:20:56.046Z,1010.8
2022-10-28T09:21:59.895Z,1010.8
2022-10-28T09:23:03.326Z,1010.8
2022-10-28T09:24:06.465Z,1010.8
2022-10-28T09:25:09.275Z,1010.9
2022-10-28T09:26:12.280Z,1010.8
2022-10-28T09:27:15.656Z,1010.8
2022-10-28T09:28:18.166Z,1010.8
2022-10-28T09:29:20.964Z,1010.8
2022-10-28T09:30:23.874Z,1010.9
2022-10-28T09:31:26.652Z,1010.8
2022-10-28T09:32:30.391Z,1010.8
2022-10-28T09:33:33.609Z,1010.9
2022-10-28T09:34:37.343Z,1010.8
2022-10-28T09:35:39.964Z,1010.8
2022-10-28T09:36:43.827Z,1010.8
2022-10-28T09:37:47.915Z,1010.8
2022-10-28T09:38:51.296Z,1010.8
2022-10-28T09:39:54.399Z,1010.8
2022-10-28T09:40:57.851Z,1010.8
2022-10-28T09:42:01.311Z,1010.8
2022-10-28T09:43:04.677Z,1010.8
2022-10-28T09:44:08.028Z,1010.8
2022-10-28T09:45:10.550Z,1010.8
2022-10-28T09:46:13.892Z,1010.7
2022-10-28T09:47:17.138Z,1010.7
2022-10-28T09:48:19.928Z,1010.7
2022-10-28T09:49:23.131Z,1010.7
2022-10-28T09:50:25.659Z,1010.7
2022-10-28T09:51:28.739Z,1010.7
2022-10-28T09:52:32.594Z,1010.7
2022-10-28T09:53:36.573Z,1010.7
2022-10-28T09:54:39.342Z,1010.7
2022-10-28T09:55:42.961Z,1010.7
2022-10-28T09:56:46.029Z,1010.7
2022-10-28T09:57:48.976Z,1010.6
2022-10-28T09:58:52.441Z,1010.7
2022-10-28T09:59:55.154Z,1010.6
2022-10-28T10:00:58.523Z,1010.6
2022-10-28T10:02:01.853Z,1010.6
2022-10-28T10:03:05.557Z,1010.6
2022-10-28T10:04:08.287Z,1010.6
2022-10-28T10:05:17.101Z,1010.6
2022-10-28T10:06:20.659Z,1010.6
2022-10-28T10:07:23.664Z,1010.6
2022-10-28T10:08:27.073Z,1010.6
2022-10-28T10:09:30.828Z,1010.6
2022-10-28T10:10:33.634Z,1010.6
2022-10-28T10:11:37.066Z,1010.6
2022-10-28T10:12:39.340Z,1010.6
2022-10-28T10:13:42.692Z,1010.5
2022-10-28T10:14:45.683Z,1010.5
2022-10-28T10:15:50.087Z,1010.6
2022-10-28T10:16:53.355Z,1010.5
2022-10-28T10:17:56.420Z,1010.5
2022-10-28T10:18:59.845Z,1010.5
2022-10-28T10:20:03.091Z,1010.5
2022-10-28T10:21:06.409Z,1010.5
2022-10-28T10:22:09.567Z,1010.5
2022-10-28T10:23:12.651Z,1010.5
2022-10-28T10:24:15.803Z,1010.5
2022-10-28T10:25:19.588Z,1010.5
2022-10-28T10:26:22.767Z,1010.5
2022-10-28T10:27:25.674Z,1010.4
2022-10-28T10:28:28.262Z,1010.4
2022-10-28T10:29:31.902Z,1010.4
2022-10-28T10:30:34.215Z,1010.4
2022-10-28T10:31:37.364Z,1010.3
2022-10-28T10:32:39.862Z,1010.4
2022-10-28T10:33:43.226Z,1010.4
2022-10-28T10:34:46.391Z,1010.4
2022-10-28T10:35:49.108Z,1010.4
2022-10-28T10:36:52.622Z,1010.3
2022-10-28T10:37:56.930Z,1010.4
2022-10-28T10:39:01.059Z,1010.4
2022-10-28T10:40:04.164Z,1010.4
2022-10-28T10:41:08.031Z,1010.4
2022-10-28T10:42:10.857Z,1010.4
2022-10-28T10:43:14.760Z,1010.4
2022-10-28T10:44:17.836Z,1010.4
2022-10-28T10:45:20.927Z,1010.4
2022-10-28T10:46:24.282Z,1010.4
2022-10-28T10:47:27.377Z,1010.3
2022-10-28T10:48:30.093Z,1010.4
2022-10-28T10:49:33.553Z,1010.3
2022-10-28T10:50:36.505Z,1010.3
2022-10-28T10:51:41.463Z,1010.3
2022-10-28T10:52:44.092Z,1010.3
2022-10-28T10:53:46.703Z,1010.2
2022-10-28T10:54:50.406Z,1010.3
2022-10-28T10:55:54.288Z,1010.3
2022-10-28T10:58:01.359Z,1010.2
2022-10-28T10:59:04.057Z,1010.2
2022-10-28T11:00:07.495Z,1010.2
2022-10-28T11:01:11.382Z,1010.2
2022-10-28T11:02:15.633Z,1010.2
2022-10-28T11:03:18.875Z,1010.2
2022-10-28T11:04:21.944Z,1010.1
2022-10-28T11:05:37.992Z,1010.2
2022-10-28T11:06:41.701Z,1010.2
2022-10-28T11:07:45.170Z,1010.1
2022-10-28T11:08:48.669Z,1010.1
2022-10-28T11:09:52.324Z,1010.1
2022-10-28T11:10:55.515Z,1010.2
2022-10-28T11:11:59.341Z,1010.2
2022-10-28T11:13:03.073Z,1010.2
2022-10-28T11:14:05.865Z,1010.2
2022-10-28T11:15:08.678Z,1010.2
2022-10-28T11:16:11.484Z,1010.2
2022-10-28T11:17:14.196Z,1010.2
2022-10-28T11:18:17.843Z,1010.2
2022-10-28T11:19:20.847Z,1010.2
2022-10-28T11:20:23.747Z,1010.2
2022-10-28T11:21:26.740Z,1010.1
2022-10-28T11:22:29.693Z,1010.2
2022-10-28T11:23:32.831Z,1010.2
2022-10-28T11:24:35.646Z,1010.2
2022-10-28T11:25:39.001Z,1010.2
2022-10-28T11:26:42.126Z,1010.2
2022-10-28T11:27:51.684Z,1010.2
2022-10-28T11:29:07.252Z,1010.2
2022-10-28T11:30:10.967Z,1010.2
2022-10-28T11:31:13.699Z,1010.1
2022-10-28T11:32:16.770Z,1010.1
2022-10-28T11:33:35.852Z,1010.1
2022-10-28T11:34:41.032Z,1010.1
2022-10-28T11:35:44.171Z,1010.1
2022-10-28T11:36:47.602Z,1010.1
2022-10-28T11:37:50.637Z,1010.1
2022-10-28T11:38:53.613Z,1010
2022-10-28T11:39:56.795Z,1010.1
2022-10-28T11:40:59.912Z,1010.1
2022-10-28T11:42:03.267Z,1010.1
2022-10-28T11:43:07.351Z,1010.1
2022-10-28T11:44:10.185Z,1010.1
2022-10-28T11:45:12.902Z,1010.1
2022-10-28T11:46:15.703Z,1010.1
2022-10-28T11:47:18.769Z,1010.1
2022-10-28T11:48:22.250Z,1010.1
2022-10-28T11:49:25.149Z,1010.1
2022-10-28T11:50:28.252Z,1010.1
2022-10-28T11:51:30.778Z,1010.1
2022-10-28T11:52:33.965Z,1010
2022-10-28T11:53:37.285Z,1010.1
2022-10-28T11:54:40.741Z,1010
2022-10-28T11:55:43.641Z,1010.1
2022-10-28T11:56:46.430Z,1010.1
2022-10-28T11:57:48.980Z,1010.1
2022-10-28T11:58:52.596Z,1010.1
2022-10-28T11:59:56.066Z,1010
2022-10-28T12:00:58.576Z,1010
2022-10-28T12:02:01.771Z,1010
2022-10-28T12:03:05.718Z,1010
2022-10-28T12:04:09.151Z,1010
2022-10-28T12:05:12.141Z,1010
2022-10-28T12:06:14.655Z,1010
2022-10-28T12:07:17.269Z,1009.9
2022-10-28T12:08:20.615Z,1009.9
2022-10-28T12:09:23.126Z,1010
2022-10-28T12:10:26.320Z,1009.9
2022-10-28T12:11:29.440Z,1009.9
2022-10-28T12:12:32.183Z,1009.9
2022-10-28T12:13:35.289Z,1010
2022-10-28T12:14:38.962Z,1010
2022-10-28T12:15:42.134Z,1009.9
2022-10-28T12:16:45.566Z,1009.9
2022-10-28T12:17:48.516Z,1009.9
2022-10-28T12:18:51.509Z,1009.9
2022-10-28T12:19:53.952Z,1009.9
2022-10-28T12:20:56.712Z,1009.9
2022-10-28T12:22:00.131Z,1009.9
2022-10-28T12:23:02.872Z,1009.9
2022-10-28T12:24:06.330Z,1009.9
2022-10-28T12:25:09.614Z,1009.9
2022-10-28T12:26:12.850Z,1009.9
2022-10-28T12:27:18.957Z,1009.8
2022-10-28T12:28:21.493Z,1009.9
2022-10-28T12:29:24.396Z,1009.8
2022-10-28T12:30:27.815Z,1009.9
2022-10-28T12:31:31.620Z,1009.8
2022-10-28T12:32:34.427Z,1009.9
2022-10-28T12:33:37.772Z,1009.9
2022-10-28T12:34:40.951Z,1009.9
2022-10-28T12:35:43.740Z,1009.9
2022-10-28T12:36:46.726Z,1009.8
2022-10-28T12:37:49.429Z,1009.8
2022-10-28T12:38:52.859Z,1009.8
2022-10-28T12:39:55.917Z,1009.7
2022-10-28T12:40:58.629Z,1009.7
2022-10-28T12:42:02.252Z,1009.7
2022-10-28T12:43:06.393Z,1009.7
2022-10-28T12:44:09.552Z,1009.7
2022-10-28T12:45:13.301Z,1009.7
2022-10-28T12:46:17.061Z,1009.6
2022-10-28T12:47:20.660Z,1009.6
2022-10-28T12:48:23.828Z,1009.6
2022-10-28T12:49:26.264Z,1009.6
2022-10-28T12:50:28.777Z,1009.6
2022-10-28T12:51:32.489Z,1009.6
2022-10-28T12:52:35.492Z,1009.6
2022-10-28T12:53:38.875Z,1009.5
2022-10-28T12:54:41.471Z,1009.5
2022-10-28T12:55:44.552Z,1009.6
2022-10-28T12:56:48.072Z,1009.6
2022-10-28T12:57:51.121Z,1009.6
2022-10-28T12:58:58.412Z,1009.6
2022-10-28T13:00:02.747Z,1009.6
2022-10-28T13:01:06.606Z,1009.6
2022-10-28T13:02:11.288Z,1009.6
2022-10-28T13:03:15.391Z,1009.6
2022-10-28T13:04:18.735Z,1009.6
2022-10-28T13:05:21.829Z,1009.6
2022-10-28T13:06:25.043Z,1009.6
2022-10-28T13:07:28.498Z,1009.7
2022-10-28T13:08:33.969Z,1009.6
2022-10-28T13:09:40.042Z,1009.7
2022-10-28T13:10:43.680Z,1009.7
2022-10-28T13:11:46.002Z,1009.7
2022-10-28T13:12:49.044Z,1009.7
2022-10-28T13:13:51.650Z,1009.7
2022-10-28T13:14:55.425Z,1009.7
2022-10-28T13:15:58.606Z,1009.7
2022-10-28T13:17:01.333Z,1009.7
2022-10-28T13:18:05.068Z,1009.7
2022-10-28T13:19:08.866Z,1009.7
2022-10-28T13:20:12.220Z,1009.7
2022-10-28T13:21:15.439Z,1009.7
2022-10-28T13:22:20.144Z,1009.7
2022-10-28T13:23:23.809Z,1009.7